createdAt,value
2022-08-28T00:00:43.707Z,33.25
2022-08-28T00:03:12.718Z,37.92
2022-08-28T00:05:41.515Z,32.60
2022-08-28T00:08:10.599Z,42.70
2022-08-28T00:10:40.278Z,41.17
2022-08-28T00:13:09.468Z,39.58
2022-08-28T00:15:38.320Z,43.78
2022-08-28T00:18:07.218Z,53.67
2022-08-28T00:20:35.491Z,39.20
2022-08-28T00:23:02.913Z,41.47
2022-08-28T00:25:30.699Z,85.28
2022-08-28T00:28:05.213Z,55.83
2022-08-28T00:30:42.756Z,78.55
2022-08-28T00:33:23.339Z,81.75
2022-08-28T00:35:51.549Z,93.20
2022-08-28T00:38:20.541Z,102.70
2022-08-28T00:40:52.017Z,54.38
2022-08-28T00:43:39.652Z,48.72
2022-08-28T00:46:10.881Z,70.93
2022-08-28T00:48:38.278Z,73.82
2022-08-28T00:51:25.784Z,61.97
2022-08-28T00:53:58.620Z,64.60
2022-08-28T00:56:27.742Z,125.43
2022-08-28T00:58:57.800Z,127.00
2022-08-28T01:01:24.736Z,75.18
2022-08-28T01:03:51.696Z,62.85
2022-08-28T01:06:20.868Z,53.13
2022-08-28T01:08:50.540Z,82.65
2022-08-28T01:11:19.629Z,116.55
2022-08-28T01:13:48.714Z,67.05
2022-08-28T01:16:18.356Z,71.22
2022-08-28T01:18:47.168Z,156.75
2022-08-28T01:21:22.482Z,124.63
2022-08-28T01:23:58.363Z,109.15
2022-08-28T01:26:29.954Z,89.82
2022-08-28T01:28:58.719Z,50.92
2022-08-28T01:31:28.474Z,130.60
2022-08-28T01:36:22.363Z,233.88
2022-08-28T01:38:53.099Z,129.10
2022-08-28T01:41:20.997Z,94.55
2022-08-28T01:43:49.107Z,58.67
2022-08-28T01:46:16.097Z,91.75
2022-08-28T01:48:43.800Z,72.00
2022-08-28T01:51:12.098Z,58.80
2022-08-28T01:53:40.090Z,49.38
2022-08-28T01:56:10.861Z,47.15
2022-08-28T01:58:38.730Z,64.18
2022-08-28T02:01:18.971Z,65.32
2022-08-28T02:03:46.916Z,42.85
2022-08-28T02:06:18.022Z,85.82
2022-08-28T02:08:45.118Z,74.32
2022-08-28T02:11:13.033Z,37.75
2022-08-28T02:13:40.473Z,51.83
2022-08-28T02:16:09.405Z,58.63
2022-08-28T02:18:38.050Z,82.38
2022-08-28T02:21:07.067Z,51.03
2022-08-28T02:23:34.207Z,142.82
2022-08-28T02:26:01.148Z,77.28
2022-08-28T02:28:28.182Z,70.35
2022-08-28T02:30:55.368Z,56.47
2022-08-28T02:33:22.333Z,56.90
2022-08-28T02:35:52.419Z,63.22
2022-08-28T02:38:19.255Z,87.03
2022-08-28T02:40:46.206Z,43.42
2022-08-28T02:43:13.074Z,63.15
2022-08-28T02:45:39.920Z,120.22
2022-08-28T02:48:12.059Z,87.30
2022-08-28T02:50:44.021Z,61.83
2022-08-28T02:53:11.896Z,45.60
2022-08-28T02:55:38.697Z,76.82
2022-08-28T02:58:06.933Z,52.55
2022-08-28T03:00:34.133Z,84.03
2022-08-28T03:03:00.963Z,55.33
2022-08-28T03:05:27.828Z,51.00
2022-08-28T03:07:54.961Z,100.32
2022-08-28T03:10:22.486Z,119.55
2022-08-28T03:12:49.503Z,79.55
2022-08-28T03:15:18.318Z,46.90
2022-08-28T03:17:46.042Z,44.80
2022-08-28T03:20:15.352Z,30.52
2022-08-28T03:23:00.998Z,37.17
2022-08-28T03:25:28.185Z,30.52
2022-08-28T03:27:55.539Z,41.33
2022-08-28T03:30:23.641Z,42.30
2022-08-28T03:32:50.516Z,39.88
2022-08-28T03:35:17.774Z,28.98
2022-08-28T03:37:44.778Z,42.28
2022-08-28T03:40:12.982Z,36.92
2022-08-28T03:42:40.004Z,32.15
2022-08-28T03:45:11.307Z,31.58
2022-08-28T03:47:39.618Z,24.98
2022-08-28T03:50:08.857Z,41.78
2022-08-28T03:52:40.024Z,27.77
2022-08-28T03:55:09.911Z,27.88
2022-08-28T04:00:11.114Z,28.83
2022-08-28T04:02:38.337Z,26.90
2022-08-28T04:05:05.824Z,28.17
2022-08-28T04:07:32.693Z,25.30
2022-08-28T04:09:59.647Z,26.83
2022-08-28T04:12:26.475Z,27.95
2022-08-28T04:14:55.304Z,41.10
2022-08-28T04:17:22.120Z,37.28
2022-08-28T04:19:52.879Z,41.45
2022-08-28T04:22:19.876Z,32.55
2022-08-28T04:24:50.511Z,55.17
2022-08-28T04:27:17.365Z,59.17
2022-08-28T04:29:44.310Z,21.75
2022-08-28T04:32:11.211Z,28.02
2022-08-28T04:34:38.714Z,31.05
2022-08-28T04:37:06.652Z,33.22
2022-08-28T04:39:33.870Z,31.15
2022-08-28T04:42:00.968Z,31.23
2022-08-28T04:44:28.105Z,30.48
2022-08-28T04:46:54.982Z,27.23
2022-08-28T04:49:25.857Z,25.60
2022-08-28T04:51:53.041Z,19.20
2022-08-28T04:54:20.619Z,18.23
2022-08-28T04:56:47.497Z,30.35
2022-08-28T04:59:14.710Z,17.98
2022-08-28T05:01:42.788Z,20.92
2022-08-28T05:04:11.714Z,21.80
2022-08-28T05:06:46.586Z,20.07
2022-08-28T05:09:16.183Z,30.38
2022-08-28T05:11:44.130Z,20.27
2022-08-28T05:14:15.865Z,19.98
2022-08-28T05:16:48.963Z,28.38
2022-08-28T05:19:17.099Z,25.00
2022-08-28T05:21:44.243Z,18.77
2022-08-28T05:24:11.823Z,20.10
2022-08-28T05:26:40.198Z,19.60
2022-08-28T05:29:08.203Z,23.92
2022-08-28T05:31:35.342Z,19.92
2022-08-28T05:34:04.895Z,22.00
2022-08-28T05:36:35.922Z,19.45
2022-08-28T05:39:06.122Z,28.17
2022-08-28T05:41:33.854Z,19.77
2022-08-28T05:44:07.465Z,21.80
2022-08-28T05:46:34.825Z,16.55
2022-08-28T05:49:03.941Z,18.33
2022-08-28T05:51:34.539Z,24.23
2022-08-28T05:54:02.448Z,19.27
2022-08-28T05:56:32.908Z,20.15
2022-08-28T05:59:02.000Z,19.98
2022-08-28T06:01:31.510Z,22.15
2022-08-28T06:04:08.691Z,19.50
2022-08-28T06:06:39.685Z,22.48
2022-08-28T06:09:15.914Z,24.30
2022-08-28T06:11:46.321Z,20.17
2022-08-28T06:14:17.471Z,21.70
2022-08-28T06:16:47.364Z,23.95
2022-08-28T06:19:14.816Z,23.42
2022-08-28T06:21:42.063Z,22.10
2022-08-28T06:24:10.693Z,22.88
2022-08-28T06:26:37.511Z,24.35
2022-08-28T06:29:08.018Z,27.88
2022-08-28T06:31:35.156Z,20.20
2022-08-28T06:34:02.450Z,16.85
2022-08-28T06:36:32.532Z,16.45
2022-08-28T06:39:00.644Z,14.60
2022-08-28T06:41:29.021Z,14.27
2022-08-28T06:43:56.609Z,14.75
2022-08-28T06:46:25.196Z,14.65
2022-08-28T06:48:52.876Z,16.70
2022-08-28T06:51:19.965Z,15.02
2022-08-28T06:53:49.963Z,12.60
2022-08-28T06:56:25.941Z,13.20
2022-08-28T06:58:55.839Z,12.15
2022-08-28T07:01:27.234Z,11.73
2022-08-28T07:03:56.994Z,12.75
2022-08-28T07:06:24.242Z,12.18
2022-08-28T07:08:51.662Z,12.02
2022-08-28T07:11:26.319Z,11.13
2022-08-28T07:13:54.718Z,11.18
2022-08-28T07:16:25.163Z,10.45
2022-08-28T07:18:52.318Z,10.35
2022-08-28T07:21:20.717Z,10.43
2022-08-28T07:23:50.452Z,14.68
2022-08-28T07:26:21.286Z,10.50
2022-08-28T07:28:48.909Z,10.82
2022-08-28T07:31:19.167Z,10.70
2022-08-28T07:33:46.699Z,11.65
2022-08-28T07:36:28.868Z,9.57
2022-08-28T07:38:57.611Z,9.93
2022-08-28T07:41:29.988Z,11.68
2022-08-28T07:44:15.756Z,10.27
2022-08-28T07:46:43.211Z,9.23
2022-08-28T07:49:10.814Z,9.00
2022-08-28T07:51:37.863Z,8.55
2022-08-28T07:54:05.526Z,9.27
2022-08-28T07:56:33.267Z,11.00
2022-08-28T07:59:03.611Z,8.80
2022-08-28T08:01:31.614Z,8.80
2022-08-28T08:04:01.583Z,8.63
2022-08-28T08:06:33.211Z,9.57
2022-08-28T08:09:02.177Z,9.27
2022-08-28T08:11:32.583Z,8.98
2022-08-28T08:14:05.814Z,8.57
2022-08-28T08:16:35.681Z,9.13
2022-08-28T08:19:03.538Z,10.13
2022-08-28T08:21:31.057Z,8.95
2022-08-28T08:23:58.845Z,9.85
2022-08-28T08:26:28.406Z,9.27
2022-08-28T08:28:56.439Z,11.45
2022-08-28T08:31:27.894Z,8.90
2022-08-28T08:34:02.105Z,8.20
2022-08-28T08:36:30.709Z,8.57
2022-08-28T08:38:59.885Z,7.80
2022-08-28T08:41:35.503Z,8.80
2022-08-28T08:44:14.396Z,8.80
2022-08-28T08:47:22.728Z,8.10
2022-08-28T08:49:49.542Z,7.97
2022-08-28T08:52:37.463Z,9.38
2022-08-28T08:55:24.896Z,12.45
2022-08-28T08:57:57.181Z,11.70
2022-08-28T09:00:25.356Z,9.50
2022-08-28T09:03:18.851Z,9.13
2022-08-28T09:05:55.248Z,12.70
2022-08-28T09:08:45.999Z,9.38
2022-08-28T09:12:03.933Z,8.10
2022-08-28T09:14:46.275Z,9.27
2022-08-28T09:17:17.818Z,12.68
2022-08-28T09:19:44.615Z,9.38
2022-08-28T09:22:11.867Z,10.13
2022-08-28T09:24:40.229Z,8.93
2022-08-28T09:27:21.631Z,10.43
2022-08-28T09:30:15.413Z,9.20
2022-08-28T09:32:58.162Z,8.90
2022-08-28T09:35:31.146Z,9.27
2022-08-28T09:38:27.844Z,9.48
2022-08-28T09:41:29.290Z,9.70
2022-08-28T09:43:57.365Z,9.93
2022-08-28T09:46:32.599Z,9.50
2022-08-28T09:49:12.307Z,9.85
2022-08-28T09:51:40.037Z,9.05
2022-08-28T09:54:17.418Z,11.70
2022-08-28T09:56:45.116Z,8.23
2022-08-28T09:59:17.929Z,11.10
2022-08-28T10:04:40.801Z,10.10
2022-08-28T10:07:46.249Z,10.77
2022-08-28T10:10:31.934Z,13.40
2022-08-28T10:13:16.299Z,10.00
2022-08-28T10:16:14.631Z,9.73
2022-08-28T10:18:53.241Z,12.35
2022-08-28T10:21:45.446Z,10.23
2022-08-28T10:24:25.989Z,9.43
2022-08-28T10:27:31.864Z,14.45
2022-08-28T10:30:16.549Z,10.50
2022-08-28T10:33:10.403Z,10.05
2022-08-28T10:35:51.619Z,10.15
2022-08-28T10:38:53.053Z,10.60
2022-08-28T10:41:24.075Z,12.23
2022-08-28T10:43:54.344Z,10.65
2022-08-28T10:46:35.143Z,10.85
2022-08-28T10:49:05.746Z,9.38
2022-08-28T10:51:49.124Z,12.77
2022-08-28T10:54:48.877Z,10.65
2022-08-28T10:57:39.517Z,11.40
2022-08-28T11:00:13.483Z,9.90
2022-08-28T11:02:48.717Z,9.80
2022-08-28T11:05:21.929Z,10.52
2022-08-28T11:07:53.345Z,10.90
2022-08-28T11:10:22.555Z,12.32
2022-08-28T11:12:57.312Z,10.85
2022-08-28T11:15:31.496Z,10.02
2022-08-28T11:18:15.907Z,10.27
2022-08-28T11:20:55.669Z,11.73
2022-08-28T11:23:37.556Z,12.18
2022-08-28T11:26:09.691Z,11.10
2022-08-28T11:28:36.537Z,11.27
2022-08-28T11:31:06.404Z,10.60
2022-08-28T11:33:45.661Z,10.95
2022-08-28T11:36:32.812Z,12.85
2022-08-28T11:39:04.174Z,11.55
2022-08-28T11:41:33.100Z,11.73
2022-08-28T11:43:59.864Z,10.43
2022-08-28T11:46:38.880Z,11.25
2022-08-28T11:49:28.245Z,12.73
2022-08-28T11:52:13.828Z,10.70
2022-08-28T11:55:16.801Z,10.48
2022-08-28T11:57:49.584Z,10.57
2022-08-28T12:00:22.586Z,11.15
2022-08-28T12:03:00.765Z,11.05
2022-08-28T12:05:33.584Z,11.00
2022-08-28T12:08:03.011Z,10.50
2022-08-28T12:10:40.742Z,12.95
2022-08-28T12:13:35.812Z,12.30
2022-08-28T12:16:07.818Z,11.88
2022-08-28T12:18:42.833Z,13.85
2022-08-28T12:21:18.101Z,10.13
2022-08-28T12:24:09.751Z,13.63
2022-08-28T12:26:42.776Z,12.90
2022-08-28T12:29:28.480Z,13.27
2022-08-28T12:32:23.106Z,11.10
2022-08-28T12:34:59.029Z,11.27
2022-08-28T12:37:42.914Z,10.50
2022-08-28T12:40:23.337Z,13.95
2022-08-28T12:43:00.381Z,10.35
2022-08-28T12:46:19.692Z,10.68
2022-08-28T12:49:01.322Z,10.75
2022-08-28T12:51:31.397Z,10.75
2022-08-28T12:54:03.413Z,9.23
2022-08-28T12:56:36.708Z,9.70
2022-08-28T12:59:22.079Z,10.40
2022-08-28T13:01:54.723Z,10.20
2022-08-28T13:04:23.797Z,10.05
2022-08-28T13:07:02.289Z,13.52
2022-08-28T13:11:59.155Z,8.00
2022-08-28T13:14:46.045Z,9.98
2022-08-28T13:17:15.419Z,12.35
2022-08-28T13:19:42.650Z,11.30
2022-08-28T13:22:33.517Z,10.10
2022-08-28T13:25:02.664Z,13.77
2022-08-28T13:30:28.241Z,9.52
2022-08-28T13:33:06.460Z,9.43
2022-08-28T13:35:42.243Z,15.73
2022-08-28T13:38:16.721Z,9.13
2022-08-28T13:41:01.839Z,15.88
2022-08-28T13:43:42.292Z,10.88
2022-08-28T13:46:09.235Z,9.90
2022-08-28T13:48:39.048Z,10.60
2022-08-28T13:51:12.699Z,10.20
2022-08-28T13:53:48.337Z,9.38
2022-08-28T13:56:17.140Z,10.43
2022-08-28T13:58:44.761Z,12.57
2022-08-28T14:01:23.092Z,9.40
2022-08-28T14:03:58.937Z,9.82
2022-08-28T14:06:31.465Z,9.52
2022-08-28T14:08:59.162Z,10.73
2022-08-28T14:11:26.702Z,8.77
2022-08-28T14:13:55.705Z,8.70
2022-08-28T14:18:53.039Z,9.27
2022-08-28T14:21:20.330Z,9.55
2022-08-28T14:23:47.070Z,9.25
2022-08-28T14:26:13.978Z,10.18
2022-08-28T14:28:40.797Z,10.23
2022-08-28T14:31:12.303Z,9.98
2022-08-28T14:33:42.370Z,9.55
2022-08-28T14:36:16.939Z,10.18
2022-08-28T14:38:43.823Z,8.48
2022-08-28T14:41:10.785Z,10.43
2022-08-28T14:43:37.842Z,9.02
2022-08-28T14:46:08.300Z,9.18
2022-08-28T14:48:37.889Z,10.60
2022-08-28T14:51:04.899Z,9.60
2022-08-28T14:53:31.846Z,11.48
2022-08-28T14:55:58.627Z,10.63
2022-08-28T14:58:25.659Z,10.57
2022-08-28T15:00:52.986Z,8.25
2022-08-28T15:03:20.338Z,9.45
2022-08-28T15:05:47.919Z,8.52
2022-08-28T15:08:17.640Z,9.32
2022-08-28T15:10:45.446Z,7.85
2022-08-28T15:13:15.202Z,9.55
2022-08-28T15:15:42.709Z,8.93
2022-08-28T15:18:10.883Z,8.65
2022-08-28T15:20:43.092Z,9.77
2022-08-28T15:23:11.002Z,8.52
2022-08-28T15:25:38.149Z,9.32
2022-08-28T15:28:05.769Z,8.55
2022-08-28T15:30:33.081Z,8.75
2022-08-28T15:32:59.910Z,7.82
2022-08-28T15:35:26.644Z,10.00
2022-08-28T15:37:53.977Z,12.07
2022-08-28T15:40:39.829Z,10.48
2022-08-28T15:43:06.920Z,9.13
2022-08-28T15:45:37.759Z,10.60
2022-08-28T15:48:04.751Z,9.25
2022-08-28T15:50:31.728Z,11.13
2022-08-28T15:52:58.870Z,8.88
2022-08-28T15:55:26.474Z,8.52
2022-08-28T15:57:54.608Z,9.07
2022-08-28T16:00:22.015Z,10.20
2022-08-28T16:02:49.059Z,8.80
2022-08-28T16:05:16.675Z,8.82
2022-08-28T16:07:43.764Z,9.50
2022-08-28T16:10:13.517Z,8.73
2022-08-28T16:12:41.355Z,8.82
2022-08-28T16:15:09.267Z,8.70
2022-08-28T16:17:36.448Z,9.20
2022-08-28T16:20:13.177Z,8.35
2022-08-28T16:22:40.188Z,8.38
2022-08-28T16:25:07.922Z,11.25
2022-08-28T16:27:34.693Z,9.32
2022-08-28T16:30:03.029Z,11.93
2022-08-28T16:32:30.251Z,10.25
2022-08-28T16:34:58.413Z,9.80
2022-08-28T16:37:26.186Z,7.15
2022-08-28T16:40:06.677Z,8.98
2022-08-28T16:42:33.505Z,8.57
2022-08-28T16:45:00.335Z,10.85
2022-08-28T16:47:28.445Z,7.72
2022-08-28T16:50:00.691Z,7.75
2022-08-28T16:52:27.947Z,8.68
2022-08-28T16:54:54.777Z,8.07
2022-08-28T16:57:22.049Z,8.40
2022-08-28T16:59:53.033Z,8.35
2022-08-28T17:02:26.627Z,8.40
2022-08-28T17:04:55.694Z,8.13
2022-08-28T17:07:23.081Z,11.85
2022-08-28T17:09:49.936Z,9.02
2022-08-28T17:12:17.217Z,7.70
2022-08-28T17:14:44.263Z,8.50
2022-08-28T17:17:11.819Z,10.93
2022-08-28T17:19:39.066Z,10.15
2022-08-28T17:22:27.361Z,7.72
2022-08-28T17:24:54.846Z,8.30
2022-08-28T17:27:22.584Z,9.60
2022-08-28T17:29:50.890Z,12.00
2022-08-28T17:32:17.752Z,9.73
2022-08-28T17:34:44.866Z,8.50
2022-08-28T17:37:12.220Z,9.02
2022-08-28T17:39:39.268Z,13.35
2022-08-28T17:42:06.313Z,9.55
2022-08-28T17:44:35.393Z,8.65
2022-08-28T17:47:02.356Z,9.35
2022-08-28T17:49:29.267Z,7.95
2022-08-28T17:51:56.276Z,7.57
2022-08-28T17:54:24.490Z,7.68
2022-08-28T17:56:55.110Z,8.98
2022-08-28T17:59:23.847Z,8.93
2022-08-28T18:01:51.217Z,8.10
2022-08-28T18:04:23.788Z,8.30
2022-08-28T18:06:55.062Z,8.98
2022-08-28T18:09:23.318Z,10.23
2022-08-28T18:11:50.746Z,10.95
2022-08-28T18:14:17.724Z,8.93
2022-08-28T18:16:44.872Z,8.75
2022-08-28T18:19:12.151Z,8.48
2022-08-28T18:21:40.262Z,9.77
2022-08-28T18:24:08.409Z,9.38
2022-08-28T18:26:35.195Z,9.45
2022-08-28T18:29:02.037Z,7.97
2022-08-28T18:31:29.028Z,9.32
2022-08-28T18:33:56.011Z,8.75
2022-08-28T18:36:23.405Z,9.32
2022-08-28T18:38:50.364Z,14.68
2022-08-28T18:41:17.242Z,10.27
2022-08-28T18:43:44.222Z,13.73
2022-08-28T18:46:11.706Z,11.57
2022-08-28T18:48:38.618Z,10.80
2022-08-28T18:51:08.043Z,16.27
2022-08-28T18:53:36.117Z,16.25
2022-08-28T18:56:04.514Z,12.68
2022-08-28T18:58:31.668Z,8.95
2022-08-28T19:00:59.873Z,7.85
2022-08-28T19:03:26.920Z,9.30
2022-08-28T19:05:55.198Z,10.10
2022-08-28T19:08:23.508Z,9.43
2022-08-28T19:10:50.415Z,9.15
2022-08-28T19:13:17.765Z,9.30
2022-08-28T19:15:52.795Z,8.73
2022-08-28T19:18:20.072Z,11.23
2022-08-28T19:20:47.213Z,9.63
2022-08-28T19:23:17.418Z,9.43
2022-08-28T19:25:45.300Z,11.10
2022-08-28T19:28:12.279Z,9.73
2022-08-28T19:30:39.091Z,11.00
2022-08-28T19:33:06.399Z,10.27
2022-08-28T19:35:33.993Z,12.75
2022-08-28T19:38:01.231Z,11.90
2022-08-28T19:40:28.688Z,18.73
2022-08-28T19:42:55.536Z,15.98
2022-08-28T19:45:22.483Z,18.60
2022-08-28T19:47:49.497Z,15.98
2022-08-28T19:50:16.594Z,11.50
2022-08-28T19:52:44.878Z,13.55
2022-08-28T19:55:26.173Z,11.18
2022-08-28T19:57:53.541Z,14.27
2022-08-28T20:00:29.481Z,14.60
2022-08-28T20:02:56.493Z,14.95
2022-08-28T20:05:23.897Z,10.85
2022-08-28T20:07:51.566Z,11.95
2022-08-28T20:10:19.443Z,11.27
2022-08-28T20:12:48.811Z,10.63
2022-08-28T20:15:17.618Z,10.35
2022-08-28T20:17:45.382Z,15.63
2022-08-28T20:20:19.501Z,14.40
2022-08-28T20:22:46.353Z,13.68
2022-08-28T20:25:14.777Z,11.13
2022-08-28T20:27:42.088Z,11.13
2022-08-28T20:30:11.005Z,11.43
2022-08-28T20:32:40.148Z,12.43
2022-08-28T20:35:09.005Z,11.13
2022-08-28T20:37:44.917Z,10.10
2022-08-28T20:40:16.120Z,9.38
2022-08-28T20:42:43.854Z,10.93
2022-08-28T20:45:11.129Z,9.77
2022-08-28T20:47:37.981Z,12.55
2022-08-28T20:50:05.233Z,10.48
2022-08-28T20:52:31.981Z,10.73
2022-08-28T20:54:59.241Z,11.80
2022-08-28T20:57:26.238Z,10.07
2022-08-28T20:59:54.223Z,12.57
2022-08-28T21:02:23.588Z,14.98
2022-08-28T21:04:51.205Z,14.98
2022-08-28T21:07:20.113Z,23.92
2022-08-28T21:10:05.129Z,33.00
2022-08-28T21:12:36.334Z,19.10
2022-08-28T21:15:03.949Z,17.65
2022-08-28T21:17:31.106Z,11.13
2022-08-28T21:20:02.894Z,11.52
2022-08-28T21:22:31.796Z,12.85
2022-08-28T21:24:59.748Z,14.77
2022-08-28T21:27:27.079Z,31.02
2022-08-28T21:29:58.790Z,15.85
2022-08-28T21:32:26.974Z,17.23
2022-08-28T21:34:55.240Z,16.33
2022-08-28T21:37:23.079Z,19.95
2022-08-28T21:39:50.067Z,14.30
2022-08-28T21:42:16.909Z,12.93
2022-08-28T21:44:51.223Z,13.68
2022-08-28T21:47:20.055Z,12.45
2022-08-28T21:49:50.877Z,13.63
2022-08-28T21:52:19.346Z,13.50
2022-08-28T21:54:46.479Z,11.15
2022-08-28T21:57:13.473Z,14.02
2022-08-28T21:59:41.344Z,11.70
2022-08-28T22:02:08.368Z,12.57
2022-08-28T22:04:36.020Z,14.68
2022-08-28T22:07:02.773Z,13.30
2022-08-28T22:09:29.629Z,16.75
2022-08-28T22:11:56.489Z,15.77
2022-08-28T22:14:25.274Z,13.60
2022-08-28T22:16:52.265Z,15.13
2022-08-28T22:19:19.363Z,13.50
2022-08-28T22:22:04.621Z,13.23
2022-08-28T22:24:31.504Z,13.98
2022-08-28T22:26:58.266Z,19.98
2022-08-28T22:29:25.724Z,15.20
2022-08-28T22:31:53.058Z,12.50
2022-08-28T22:34:20.016Z,17.23
2022-08-28T22:36:47.184Z,16.05
2022-08-28T22:39:14.363Z,16.05
2022-08-28T22:41:42.269Z,13.80
2022-08-28T22:44:10.050Z,14.27
2022-08-28T22:46:36.975Z,11.82
2022-08-28T22:49:04.453Z,16.98
2022-08-28T22:51:33.872Z,19.88
2022-08-28T22:54:00.832Z,16.25
2022-08-28T22:56:27.574Z,12.52
2022-08-28T22:58:54.337Z,14.25
2022-08-28T23:01:24.359Z,12.25
2022-08-28T23:06:23.878Z,16.30
2022-08-28T23:08:50.688Z,12.13
2022-08-28T23:11:17.663Z,14.70
2022-08-28T23:13:44.528Z,15.77
2022-08-28T23:16:11.633Z,14.48
2022-08-28T23:19:06.715Z,12.73
2022-08-28T23:21:26.412Z,13.27
2022-08-28T23:23:53.668Z,10.95
2022-08-28T23:26:20.806Z,18.65
2022-08-28T23:28:48.024Z,10.95
2022-08-28T23:31:15.032Z,11.80
2022-08-28T23:33:42.176Z,9.55
2022-08-28T23:36:09.979Z,10.05
2022-08-28T23:38:40.757Z,11.98
2022-08-28T23:41:11.311Z,10.68
2022-08-28T23:43:38.726Z,10.90
2022-08-28T23:46:06.421Z,10.48
2022-08-28T23:48:33.836Z,15.95
2022-08-28T23:51:02.615Z,14.57
2022-08-28T23:53:29.822Z,12.10
2022-08-28T23:55:57.652Z,13.40
2022-08-28T23:58:31.939Z,12.23
